Impacts METAR Board INFO
IDs:

KCLE - Cleveland/Hopkins In, OH, US

Updated at: 1503 UTC 14 Dec 2017
Potential Impact None Slight Moderate High
Time14/03Z 14/04Z 14/05Z 14/06Z 14/07Z 14/08Z 14/09Z 14/10Z 14/11Z 14/12Z 14/13Z 14/14Z 14/15Z
VIS1.25 1 1 2 3 6 3 5 9 10 9 10 9
CIG15 15 12 31 8 27 13 14 24 30 32 35 21
CoverOVCOVXOVCOVCOVCOVCOVCOVCOVCBKNBKNBKNOVC
FltCatIFRIFRIFRIFRIFRMVFRMVFRMVFRMVFRMVFRVFRVFRMVFR
WX-SN BR-SN BR-SN BR-SN BR-SN BR-SN BR-SN BLSN-SN BLSN-SN-------SN
WDir160150404030360330340360360330320320
WSpd11 7 8 9 4 9 17 18 14 10 14 7 10
WGst-- -- -- -- -- -- -- 27 -- -- -- -- --
Raw hourly METARs
KCLE 140251Z 16011KT 1 1/4SM -SN BR OVC015 M05/M07 A2939 RMK AO2 SLP963 P0003 60009 T10501067 56043
KCLE 140351Z 15007KT 1SM -SN BR VV015 M04/M06 A2938 RMK AO2 SLP960 P0002 T10441061
KCLE 140451Z 04008KT 1SM -SN BR OVC012 M04/M06 A2940 RMK AO2 SLP967 P0003 T10391056 410391083
KCLE 140603Z 04009KT 2SM -SN BR FEW019 SCT026 OVC031 M04/M06 A2944 RMK AO2 P0001 T10391056
KCLE 140656Z 03004KT 3SM -SN BR BKN008 OVC014 M04/M06 A2951 RMK AO2 PRESRR P0000 T10391056
KCLE 140751Z 36009KT 6SM -SN BR SCT014 BKN027 OVC037 M02/M04 A2958 RMK AO2 PRESRR SLP026 P0001 T10221044
KCLE 140901Z 33017KT 3SM -SN BLSN BKN013 OVC019 M02/M04 A2966 RMK AO2 PRESRR P0000 T10221044
KCLE 140951Z 34018G27KT 5SM -SN BLSN OVC014 M04/M06 A2972 RMK AO2 PK WND 33027/0946 SLP076 P0000 T10391061
KCLE 141051Z 36014KT 9SM -SN FEW017 OVC024 M04/M08 A2979 RMK AO2 SLP098 P0000 T10391078
KCLE 141151Z 36010KT 10SM BKN030 BKN037 M04/M09 A2984 RMK AO2 SNE04 SLP116 P0000 60006 70030 4/005 T10391089 11022 21044 51066
KCLE 141251Z 33014KT 9SM BKN032 M04/M10 A2990 RMK AO2 SLP136 T10441100
KCLE 141351Z 32007KT 10SM SCT027 BKN035 M04/M10 A2994 RMK AO2 SLP148 T10441100
KCLE 141451Z 32010KT 9SM -SN BKN021 OVC036 M04/M08 A2998 RMK AO2 SNB26 SLP162 P0000 60000 T10441083 51044